sensor_id;sensor_type;location;lat;lon;timestamp;pressure;altitude;pressure_sealevel;temperature;humidity
38058;BME280;23862;51.972;4.618;2022-08-19T00:00:26;-25577.91;;;18.15;100.00
38058;BME280;23862;51.972;4.618;2022-08-19T00:02:52;-25577.47;;;18.13;100.00
38058;BME280;23862;51.972;4.618;2022-08-19T00:05:18;-25577.47;;;18.13;100.00
38058;BME280;23862;51.972;4.618;2022-08-19T00:07:44;-25576.31;;;18.09;100.00
38058;BME280;23862;51.972;4.618;2022-08-19T00:10:11;-25577.19;;;18.12;100.00
38058;BME280;23862;51.972;4.618;2022-08-19T00:12:37;-25575.88;;;18.07;100.00
38058;BME280;23862;51.972;4.618;2022-08-19T00:15:07;-25574.28;;;18.02;100.00
38058;BME280;23862;51.972;4.618;2022-08-19T00:17:36;-25573.28;;;17.98;100.00
38058;BME280;23862;51.972;4.618;2022-08-19T00:20:02;-25572.56;;;17.96;100.00
38058;BME280;23862;51.972;4.618;2022-08-19T00:22:27;-25572.84;;;17.97;100.00
38058;BME280;23862;51.972;4.618;2022-08-19T00:24:53;-25570.66;;;17.89;100.00
38058;BME280;23862;51.972;4.618;2022-08-19T00:27:18;-25570.66;;;17.89;100.00
38058;BME280;23862;51.972;4.618;2022-08-19T00:29:43;-25571.41;;;17.91;100.00
38058;BME280;23862;51.972;4.618;2022-08-19T00:32:09;-25570.81;;;17.89;100.00
38058;BME280;23862;51.972;4.618;2022-08-19T00:37:04;-25568.78;;;17.82;100.00
38058;BME280;23862;51.972;4.618;2022-08-19T00:39:29;-25568.50;;;17.81;100.00
38058;BME280;23862;51.972;4.618;2022-08-19T00:41:54;-25569.66;;;17.85;100.00
38058;BME280;23862;51.972;4.618;2022-08-19T00:44:22;-25569.06;;;17.83;100.00
38058;BME280;23862;51.972;4.618;2022-08-19T00:46:48;-25569.50;;;17.85;100.00
38058;BME280;23862;51.972;4.618;2022-08-19T00:49:15;-25569.38;;;17.84;100.00
38058;BME280;23862;51.972;4.618;2022-08-19T00:51:42;-25568.78;;;17.82;100.00
38058;BME280;23862;51.972;4.618;2022-08-19T00:54:09;-25567.19;;;17.76;100.00
38058;BME280;23862;51.972;4.618;2022-08-19T00:56:34;-25566.31;;;17.73;100.00
38058;BME280;23862;51.972;4.618;2022-08-19T00:59:00;-25565.16;;;17.69;100.00
38058;BME280;23862;51.972;4.618;2022-08-19T01:01:26;-25564.28;;;17.66;100.00
38058;BME280;23862;51.972;4.618;2022-08-19T01:03:52;-25563.41;;;17.63;100.00
38058;BME280;23862;51.972;4.618;2022-08-19T01:06:17;-25561.53;;;17.56;100.00
38058;BME280;23862;51.972;4.618;2022-08-19T01:08:42;-25561.53;;;17.56;100.00
38058;BME280;23862;51.972;4.618;2022-08-19T01:11:07;-25560.97;;;17.54;100.00
38058;BME280;23862;51.972;4.618;2022-08-19T01:13:34;-25560.97;;;17.54;100.00
38058;BME280;23862;51.972;4.618;2022-08-19T01:16:02;-25559.81;;;17.50;100.00
38058;BME280;23862;51.972;4.618;2022-08-19T01:18:29;-25559.22;;;17.48;100.00
38058;BME280;23862;51.972;4.618;2022-08-19T01:20:55;-25558.34;;;17.45;100.00
38058;BME280;23862;51.972;4.618;2022-08-19T01:23:24;-25558.94;;;17.47;100.00
38058;BME280;23862;51.972;4.618;2022-08-19T01:26:07;-25559.66;;;17.50;100.00
38058;BME280;23862;51.972;4.618;2022-08-19T01:28:33;-25558.94;;;17.47;100.00
38058;BME280;23862;51.972;4.618;2022-08-19T01:30:58;-25559.50;;;17.49;100.00
38058;BME280;23862;51.972;4.618;2022-08-19T01:33:23;-25560.53;;;17.53;100.00
38058;BME280;23862;51.972;4.618;2022-08-19T01:35:49;-25560.09;;;17.51;100.00
38058;BME280;23862;51.972;4.618;2022-08-19T01:38:20;-25558.63;;;17.46;100.00
38058;BME280;23862;51.972;4.618;2022-08-19T01:40:46;-25559.81;;;17.50;100.00
38058;BME280;23862;51.972;4.618;2022-08-19T01:43:19;-25559.66;;;17.50;100.00
38058;BME280;23862;51.972;4.618;2022-08-19T01:45:44;-25558.34;;;17.45;100.00
38058;BME280;23862;51.972;4.618;2022-08-19T01:48:10;-25557.47;;;17.42;100.00
38058;BME280;23862;51.972;4.618;2022-08-19T01:50:36;-25557.78;;;17.43;100.00
38058;BME280;23862;51.972;4.618;2022-08-19T01:53:04;-25557.06;;;17.40;100.00
38058;BME280;23862;51.972;4.618;2022-08-19T01:55:30;-25556.91;;;17.40;100.00
38058;BME280;23862;51.972;4.618;2022-08-19T01:57:57;-25556.31;;;17.38;100.00
38058;BME280;23862;51.972;4.618;2022-08-19T02:00:23;-25555.59;;;17.35;100.00
38058;BME280;23862;51.972;4.618;2022-08-19T02:02:50;-25554.59;;;17.32;100.00
38058;BME280;23862;51.972;4.618;2022-08-19T02:05:16;-25553.56;;;17.28;100.00
38058;BME280;23862;51.972;4.618;2022-08-19T02:07:42;-25554.28;;;17.31;100.00
38058;BME280;23862;51.972;4.618;2022-08-19T02:10:11;-25553.44;;;17.28;100.00
38058;BME280;23862;51.972;4.618;2022-08-19T02:12:40;-25551.97;;;17.22;100.00
38058;BME280;23862;51.972;4.618;2022-08-19T02:15:05;-25551.53;;;17.21;100.00
38058;BME280;23862;51.972;4.618;2022-08-19T02:17:32;-25551.09;;;17.19;100.00
38058;BME280;23862;51.972;4.618;2022-08-19T02:19:58;-25552.41;;;17.24;100.00
38058;BME280;23862;51.972;4.618;2022-08-19T02:22:24;-25551.97;;;17.22;100.00
38058;BME280;23862;51.972;4.618;2022-08-19T02:24:50;-25551.69;;;17.21;100.00
38058;BME280;23862;51.972;4.618;2022-08-19T02:27:16;-25551.97;;;17.22;100.00
38058;BME280;23862;51.972;4.618;2022-08-19T02:29:41;-25551.97;;;17.22;100.00
38058;BME280;23862;51.972;4.618;2022-08-19T02:32:07;-25552.41;;;17.24;100.00
38058;BME280;23862;51.972;4.618;2022-08-19T02:34:34;-25552.41;;;17.24;100.00
38058;BME280;23862;51.972;4.618;2022-08-19T02:36:59;-25552.69;;;17.25;100.00
38058;BME280;23862;51.972;4.618;2022-08-19T02:39:24;-25553.00;;;17.26;100.00
38058;BME280;23862;51.972;4.618;2022-08-19T02:41:50;-25553.00;;;17.26;100.00
38058;BME280;23862;51.972;4.618;2022-08-19T02:44:16;-25551.69;;;17.21;100.00
38058;BME280;23862;51.972;4.618;2022-08-19T02:46:42;-25551.69;;;17.21;100.00
38058;BME280;23862;51.972;4.618;2022-08-19T02:49:09;-25551.53;;;17.21;100.00
38058;BME280;23862;51.972;4.618;2022-08-19T02:51:37;-25551.69;;;17.21;100.00
38058;BME280;23862;51.972;4.618;2022-08-19T02:54:04;-25549.38;;;17.13;100.00
38058;BME280;23862;51.972;4.618;2022-08-19T02:56:29;-25549.06;;;17.12;100.00
38058;BME280;23862;51.972;4.618;2022-08-19T02:58:55;-25549.66;;;17.14;100.00
38058;BME280;23862;51.972;4.618;2022-08-19T03:03:46;-25548.78;;;17.11;100.00
38058;BME280;23862;51.972;4.618;2022-08-19T03:06:13;-25548.78;;;17.11;100.00
38058;BME280;23862;51.972;4.618;2022-08-19T03:08:39;-25548.50;;;17.10;100.00
38058;BME280;23862;51.972;4.618;2022-08-19T03:11:05;-25548.63;;;17.11;100.00
38058;BME280;23862;51.972;4.618;2022-08-19T03:13:32;-25547.63;;;17.07;100.00
38058;BME280;23862;51.972;4.618;2022-08-19T03:15:57;-25548.22;;;17.09;100.00
38058;BME280;23862;51.972;4.618;2022-08-19T03:18:23;-25547.34;;;17.06;100.00
38058;BME280;23862;51.972;4.618;2022-08-19T03:20:49;-25547.03;;;17.05;100.00
38058;BME280;23862;51.972;4.618;2022-08-19T03:23:15;-25546.91;;;17.04;100.00
38058;BME280;23862;51.972;4.618;2022-08-19T03:25:41;-25546.75;;;17.04;100.00
38058;BME280;23862;51.972;4.618;2022-08-19T03:28:08;-25547.19;;;17.05;100.00
38058;BME280;23862;51.972;4.618;2022-08-19T03:30:34;-25547.03;;;17.05;100.00
38058;BME280;23862;51.972;4.618;2022-08-19T03:35:43;-25545.59;;;17.00;100.00
38058;BME280;23862;51.972;4.618;2022-08-19T03:38:10;-25544.56;;;16.96;100.00
38058;BME280;23862;51.972;4.618;2022-08-19T03:40:36;-25545.31;;;16.99;100.00
38058;BME280;23862;51.972;4.618;2022-08-19T03:43:02;-25544.72;;;16.97;100.00
38058;BME280;23862;51.972;4.618;2022-08-19T03:45:28;-25544.44;;;16.96;97.87
38058;BME280;23862;51.972;4.618;2022-08-19T03:47:53;-25544.16;;;16.95;95.17
38058;BME280;23862;51.972;4.618;2022-08-19T03:50:19;-25544.44;;;16.96;93.55
38058;BME280;23862;51.972;4.618;2022-08-19T03:52:48;-25544.44;;;16.96;90.02
38058;BME280;23862;51.972;4.618;2022-08-19T03:55:15;-25544.44;;;16.96;88.55
38058;BME280;23862;51.972;4.618;2022-08-19T03:57:40;-25545.00;;;16.98;88.03
38058;BME280;23862;51.972;4.618;2022-08-19T04:00:07;-25544.44;;;16.96;87.30
38058;BME280;23862;51.972;4.618;2022-08-19T04:02:41;-25545.00;;;16.98;86.07
38058;BME280;23862;51.972;4.618;2022-08-19T04:05:07;-25544.72;;;16.97;85.10
38058;BME280;23862;51.972;4.618;2022-08-19T04:07:33;-25545.00;;;16.98;84.09
38058;BME280;23862;51.972;4.618;2022-08-19T04:09:58;-25545.59;;;17.00;81.74
38058;BME280;23862;51.972;4.618;2022-08-19T04:12:26;-25546.75;;;17.04;79.78
38058;BME280;23862;51.972;4.618;2022-08-19T04:14:52;-25546.47;;;17.03;78.83
38058;BME280;23862;51.972;4.618;2022-08-19T04:17:17;-25545.31;;;16.99;78.13
38058;BME280;23862;51.972;4.618;2022-08-19T04:19:42;-25545.88;;;17.01;77.01
38058;BME280;23862;51.972;4.618;2022-08-19T04:22:08;-25545.31;;;16.99;75.88
38058;BME280;23862;51.972;4.618;2022-08-19T04:24:34;-25545.00;;;16.98;74.84
38058;BME280;23862;51.972;4.618;2022-08-19T04:27:00;-25545.00;;;16.98;74.13
38058;BME280;23862;51.972;4.618;2022-08-19T04:29:26;-25544.88;;;16.97;73.68
38058;BME280;23862;51.972;4.618;2022-08-19T04:31:52;-25544.28;;;16.95;73.43
38058;BME280;23862;51.972;4.618;2022-08-19T04:34:20;-25544.88;;;16.97;73.02
38058;BME280;23862;51.972;4.618;2022-08-19T04:36:47;-25544.44;;;16.96;72.63
38058;BME280;23862;51.972;4.618;2022-08-19T04:39:16;-25544.56;;;16.96;72.30
38058;BME280;23862;51.972;4.618;2022-08-19T04:41:42;-25544.56;;;16.96;72.11
38058;BME280;23862;51.972;4.618;2022-08-19T04:46:59;-25548.34;;;17.10;71.76
38058;BME280;23862;51.972;4.618;2022-08-19T04:49:25;-25550.22;;;17.16;71.75
38058;BME280;23862;51.972;4.618;2022-08-19T04:51:51;-25553.00;;;17.26;71.90
38058;BME280;23862;51.972;4.618;2022-08-19T04:54:22;-25553.72;;;17.29;72.26
38058;BME280;23862;51.972;4.618;2022-08-19T04:56:48;-25555.16;;;17.34;72.78
38058;BME280;23862;51.972;4.618;2022-08-19T04:59:14;-25556.91;;;17.40;73.46
38058;BME280;23862;51.972;4.618;2022-08-19T05:01:42;-25558.63;;;17.46;74.31
38058;BME280;23862;51.972;4.618;2022-08-19T05:04:07;-25560.38;;;17.52;75.74
38058;BME280;23862;51.972;4.618;2022-08-19T05:06:34;-25560.66;;;17.53;77.59
38058;BME280;23862;51.972;4.618;2022-08-19T05:09:00;-25561.25;;;17.55;79.70
38058;BME280;23862;51.972;4.618;2022-08-19T05:11:27;-25564.44;;;17.67;82.33
38058;BME280;23862;51.972;4.618;2022-08-19T05:13:55;-25566.03;;;17.72;85.16
38058;BME280;23862;51.972;4.618;2022-08-19T05:16:22;-25567.19;;;17.76;86.94
38058;BME280;23862;51.972;4.618;2022-08-19T05:18:47;-25568.34;;;17.81;88.93
38058;BME280;23862;51.972;4.618;2022-08-19T05:21:32;-25569.94;;;17.86;91.20
38058;BME280;23862;51.972;4.618;2022-08-19T05:24:19;-25571.09;;;17.90;94.40
38058;BME280;23862;51.972;4.618;2022-08-19T05:26:45;-25574.00;;;18.01;96.90
38058;BME280;23862;51.972;4.618;2022-08-19T05:29:11;-25574.72;;;18.03;100.00
38058;BME280;23862;51.972;4.618;2022-08-19T05:31:37;-25575.16;;;18.05;100.00
38058;BME280;23862;51.972;4.618;2022-08-19T05:34:04;-25576.91;;;18.11;100.00
38058;BME280;23862;51.972;4.618;2022-08-19T05:36:34;-25578.06;;;18.15;100.00
38058;BME280;23862;51.972;4.618;2022-08-19T05:38:59;-25580.50;;;18.24;100.00
38058;BME280;23862;51.972;4.618;2022-08-19T05:41:25;-25582.41;;;18.30;100.00
38058;BME280;23862;51.972;4.618;2022-08-19T05:46:26;-25581.22;;;18.26;100.00
38058;BME280;23862;51.972;4.618;2022-08-19T05:48:51;-25583.84;;;18.36;100.00
38058;BME280;23862;51.972;4.618;2022-08-19T05:51:17;-25585.28;;;18.41;100.00
38058;BME280;23862;51.972;4.618;2022-08-19T05:53:42;-25588.19;;;18.51;100.00
38058;BME280;23862;51.972;4.618;2022-08-19T05:56:11;-25594.09;;;18.72;100.00
38058;BME280;23862;51.972;4.618;2022-08-19T05:58:36;-25610.16;;;19.29;100.00
38058;BME280;23862;51.972;4.618;2022-08-19T06:01:03;-25629.63;;;19.99;100.00
38058;BME280;23862;51.972;4.618;2022-08-19T06:03:33;-25641.47;;;20.41;100.00
38058;BME280;23862;51.972;4.618;2022-08-19T06:05:59;-25647.06;;;20.61;100.00
38058;BME280;23862;51.972;4.618;2022-08-19T06:08:25;-25645.63;;;20.56;100.00
38058;BME280;23862;51.972;4.618;2022-08-19T06:10:51;-25647.38;;;20.62;100.00
38058;BME280;23862;51.972;4.618;2022-08-19T06:13:19;-25649.69;;;20.70;100.00
38058;BME280;23862;51.972;4.618;2022-08-19T06:15:45;-25651.25;;;20.76;100.00
38058;BME280;23862;51.972;4.618;2022-08-19T06:18:11;-25654.13;;;20.86;100.00
38058;BME280;23862;51.972;4.618;2022-08-19T06:20:41;-25647.06;;;20.61;100.00
38058;BME280;23862;51.972;4.618;2022-08-19T06:23:07;-25643.91;;;20.50;100.00
38058;BME280;23862;51.972;4.618;2022-08-19T06:25:32;-25643.31;;;20.48;100.00
38058;BME280;23862;51.972;4.618;2022-08-19T06:27:57;-25642.91;;;20.46;100.00
38058;BME280;23862;51.972;4.618;2022-08-19T06:30:23;-25639.59;;;20.34;100.00
38058;BME280;23862;51.972;4.618;2022-08-19T06:32:49;-25651.13;;;20.75;100.00
38058;BME280;23862;51.972;4.618;2022-08-19T06:35:14;-25651.41;;;20.76;100.00
38058;BME280;23862;51.972;4.618;2022-08-19T06:37:40;-25655.16;;;20.90;100.00
38058;BME280;23862;51.972;4.618;2022-08-19T06:40:06;-25655.72;;;20.92;100.00
38058;BME280;23862;51.972;4.618;2022-08-19T06:42:33;-25657.03;;;20.96;100.00
38058;BME280;23862;51.972;4.618;2022-08-19T06:44:59;-25662.47;;;21.16;100.00
38058;BME280;23862;51.972;4.618;2022-08-19T06:47:27;-25680.03;;;21.79;100.00
38058;BME280;23862;51.972;4.618;2022-08-19T06:49:54;-25681.91;;;21.85;100.00
38058;BME280;23862;51.972;4.618;2022-08-19T06:52:24;-21689.75;;;21.78;100.00
38058;BME280;23862;51.972;4.618;2022-08-19T06:54:49;-20359.03;;;21.76;100.00
38058;BME280;23862;51.972;4.618;2022-08-19T06:57:15;-20023.72;;;21.62;100.00
38058;BME280;23862;51.972;4.618;2022-08-19T06:59:41;-19685.88;;;21.34;100.00
38058;BME280;23862;51.972;4.618;2022-08-19T07:02:06;-22017.47;;;21.57;100.00
38058;BME280;23862;51.972;4.618;2022-08-19T07:04:32;-22360.00;;;22.01;100.00
38058;BME280;23862;51.972;4.618;2022-08-19T07:07:06;-20036.31;;;22.28;100.00
38058;BME280;23862;51.972;4.618;2022-08-19T07:09:40;-17043.47;;;22.61;100.00
38058;BME280;23862;51.972;4.618;2022-08-19T07:12:06;-11705.50;;;22.52;100.00
38058;BME280;23862;51.972;4.618;2022-08-19T07:14:33;-9034.09;;;22.38;100.00
38058;BME280;23862;51.972;4.618;2022-08-19T07:17:06;-9366.81;;;21.88;100.00
38058;BME280;23862;51.972;4.618;2022-08-19T07:19:31;-10370.41;;;22.58;100.00
38058;BME280;23862;51.972;4.618;2022-08-19T07:22:00;-7028.00;;;23.84;100.00
38058;BME280;23862;51.972;4.618;2022-08-19T07:24:28;8760.41;;;24.49;100.00
38058;BME280;23862;51.972;4.618;2022-08-19T07:26:55;29033.97;;;24.93;100.00
38058;BME280;23862;51.972;4.618;2022-08-19T07:29:22;62056.25;;;25.31;100.00
38058;BME280;23862;51.972;4.618;2022-08-19T07:31:48;81121.41;;;24.51;100.00
38058;BME280;23862;51.972;4.618;2022-08-19T07:34:14;74949.66;;;24.47;100.00
38058;BME280;23862;51.972;4.618;2022-08-19T07:36:41;67054.97;;;24.22;100.00
38058;BME280;23862;51.972;4.618;2022-08-19T07:39:08;61606.91;;;24.32;100.00
38058;BME280;23862;51.972;4.618;2022-08-19T07:41:34;55132.88;;;24.33;100.00
38058;BME280;23862;51.972;4.618;2022-08-19T07:44:02;61270.34;;;24.36;100.00
38058;BME280;23862;51.972;4.618;2022-08-19T07:46:30;62601.66;;;24.07;100.00
38058;BME280;23862;51.972;4.618;2022-08-19T07:48:56;54417.56;;;23.98;100.00
38058;BME280;23862;51.972;4.618;2022-08-19T07:51:21;48598.25;;;23.55;100.00
38058;BME280;23862;51.972;4.618;2022-08-19T07:53:48;33996.25;;;23.11;100.00
38058;BME280;23862;51.972;4.618;2022-08-19T07:56:15;24179.13;;;22.59;100.00
38058;BME280;23862;51.972;4.618;2022-08-19T07:58:42;9378.97;;;22.47;100.00
38058;BME280;23862;51.972;4.618;2022-08-19T08:01:08;1662.69;;;22.10;100.00
38058;BME280;23862;51.972;4.618;2022-08-19T08:03:35;-6362.69;;;21.93;100.00
38058;BME280;23862;51.972;4.618;2022-08-19T08:06:19;-11701.56;;;21.87;100.00
38058;BME280;23862;51.972;4.618;2022-08-19T08:09:04;-14698.50;;;21.61;100.00
38058;BME280;23862;51.972;4.618;2022-08-19T08:14:17;-19358.22;;;21.61;100.00
38058;BME280;23862;51.972;4.618;2022-08-19T08:16:42;-20691.66;;;21.76;100.00
38058;BME280;23862;51.972;4.618;2022-08-19T08:19:12;-21354.50;;;21.65;100.00
38058;BME280;23862;51.972;4.618;2022-08-19T08:21:40;-21690.88;;;21.83;100.00
38058;BME280;23862;51.972;4.618;2022-08-19T08:24:14;-22026.16;;;21.96;100.00
38058;BME280;23862;51.972;4.618;2022-08-19T08:26:39;-21694.69;;;22.01;100.00
38058;BME280;23862;51.972;4.618;2022-08-19T08:29:04;-22030.50;;;22.15;100.00
38058;BME280;23862;51.972;4.618;2022-08-19T08:31:32;-20037.09;;;22.32;100.00
38058;BME280;23862;51.972;4.618;2022-08-19T08:34:00;-18041.34;;;22.48;100.00
38058;BME280;23862;51.972;4.618;2022-08-19T08:36:25;-15045.09;;;22.81;100.00
38058;BME280;23862;51.972;4.618;2022-08-19T08:38:50;-10706.47;;;23.07;100.00
38058;BME280;23862;51.972;4.618;2022-08-19T08:41:37;-7697.94;;;23.02;100.00
38058;BME280;23862;51.972;4.618;2022-08-19T08:44:10;-6026.34;;;22.77;100.00
38058;BME280;23862;51.972;4.618;2022-08-19T08:46:38;-5021.94;;;23.01;100.00
38058;BME280;23862;51.972;4.618;2022-08-19T08:52:10;-1671.88;;;23.26;100.00
38058;BME280;23862;51.972;4.618;2022-08-19T08:54:40;2701.69;;;24.20;100.00
38058;BME280;23862;51.972;4.618;2022-08-19T08:57:09;17870.91;;;24.78;100.00
38058;BME280;23862;51.972;4.618;2022-08-19T08:59:36;35095.97;;;24.37;100.00
38058;BME280;23862;51.972;4.618;2022-08-19T09:02:03;39850.75;;;24.49;100.00
38058;BME280;23862;51.972;4.618;2022-08-19T09:04:29;42540.25;;;24.16;100.00
38058;BME280;23862;51.972;4.618;2022-08-19T09:07:07;40882.56;;;24.67;100.00
38058;BME280;23862;51.972;4.618;2022-08-19T09:09:40;63431.13;;;25.38;100.00
38058;BME280;23862;51.972;4.618;2022-08-19T09:12:09;90596.81;;;25.85;100.00
38058;BME280;23862;51.972;4.618;2022-08-19T09:17:01;121693.81;;;25.77;100.00
38058;BME280;23862;51.972;4.618;2022-08-19T09:19:32;149195.97;;;25.78;100.00
38058;BME280;23862;51.972;4.618;2022-08-19T09:21:58;149310.50;;;26.24;100.00
38058;BME280;23862;51.972;4.618;2022-08-19T09:24:25;149409.50;;;26.64;100.00
38058;BME280;23862;51.972;4.618;2022-08-19T09:26:50;149345.16;;;26.38;100.00
38058;BME280;23862;51.972;4.618;2022-08-19T09:29:15;149399.19;;;26.60;100.00
38058;BME280;23862;51.972;4.618;2022-08-19T09:31:41;149376.03;;;26.50;100.00
38058;BME280;23862;51.972;4.618;2022-08-19T09:34:06;149373.50;;;26.49;100.00
38058;BME280;23862;51.972;4.618;2022-08-19T09:36:31;149400.50;;;26.60;100.00
38058;BME280;23862;51.972;4.618;2022-08-19T09:38:58;149396.66;;;26.59;100.00
38058;BME280;23862;51.972;4.618;2022-08-19T09:41:25;149349.03;;;26.40;100.00
38058;BME280;23862;51.972;4.618;2022-08-19T09:43:51;149332.31;;;26.33;100.00
38058;BME280;23862;51.972;4.618;2022-08-19T09:46:18;149185.69;;;25.74;100.00
38058;BME280;23862;51.972;4.618;2022-08-19T09:48:45;149033.97;;;25.14;100.00
38058;BME280;23862;51.972;4.618;2022-08-19T09:51:14;148967.16;;;24.87;100.00
38058;BME280;23862;51.972;4.618;2022-08-19T09:53:40;148801.38;;;24.20;100.00
38058;BME280;23862;51.972;4.618;2022-08-19T09:56:06;148670.38;;;23.68;100.00
38058;BME280;23862;51.972;4.618;2022-08-19T09:58:32;148606.19;;;23.42;100.00
38058;BME280;23862;51.972;4.618;2022-08-19T10:00:57;148597.19;;;23.39;100.00
38058;BME280;23862;51.972;4.618;2022-08-19T10:03:24;135716.66;;;23.26;100.00
38058;BME280;23862;51.972;4.618;2022-08-19T10:05:49;102873.38;;;23.09;100.00
38058;BME280;23862;51.972;4.618;2022-08-19T10:08:19;69972.38;;;22.94;100.00
38058;BME280;23862;51.972;4.618;2022-08-19T10:10:45;37701.41;;;22.90;100.00
38058;BME280;23862;51.972;4.618;2022-08-19T10:13:12;24192.34;;;22.86;100.00
38058;BME280;23862;51.972;4.618;2022-08-19T10:15:37;19143.25;;;22.94;100.00
38058;BME280;23862;51.972;4.618;2022-08-19T10:18:05;16796.97;;;23.20;100.00
38058;BME280;23862;51.972;4.618;2022-08-19T10:20:30;17479.25;;;23.42;100.00
38058;BME280;23862;51.972;4.618;2022-08-19T10:22:57;24232.00;;;23.64;100.00
38058;BME280;23862;51.972;4.618;2022-08-19T10:25:24;39801.31;;;23.83;100.00
38058;BME280;23862;51.972;4.618;2022-08-19T10:27:51;62919.66;;;23.86;100.00
38058;BME280;23862;51.972;4.618;2022-08-19T10:30:16;79006.97;;;24.09;100.00
38058;BME280;23862;51.972;4.618;2022-08-19T10:32:41;91350.22;;;24.07;100.00
38058;BME280;23862;51.972;4.618;2022-08-19T10:35:07;90624.81;;;23.82;100.00
38058;BME280;23862;51.972;4.618;2022-08-19T10:37:33;82400.41;;;23.86;100.00
38058;BME280;23862;51.972;4.618;2022-08-19T10:39:59;82412.91;;;23.95;100.00
38058;BME280;23862;51.972;4.618;2022-08-19T10:42:28;97513.41;;;23.92;100.00
38058;BME280;23862;51.972;4.618;2022-08-19T10:44:56;105127.25;;;24.15;100.00
38058;BME280;23862;51.972;4.618;2022-08-19T10:47:21;126264.59;;;24.42;100.00
38058;BME280;23862;51.972;4.618;2022-08-19T10:49:48;148953.06;;;24.81;100.00
38058;BME280;23862;51.972;4.618;2022-08-19T10:55:03;149282.16;;;26.13;100.00
38058;BME280;23862;51.972;4.618;2022-08-19T10:57:47;149248.75;;;26.00;100.00
38058;BME280;23862;51.972;4.618;2022-08-19T11:00:12;149204.97;;;25.82;100.00
38058;BME280;23862;51.972;4.618;2022-08-19T11:02:38;149139.44;;;25.56;100.00
38058;BME280;23862;51.972;4.618;2022-08-19T11:05:04;149075.16;;;25.30;100.00
38058;BME280;23862;51.972;4.618;2022-08-19T11:07:30;149093.16;;;25.37;100.00
38058;BME280;23862;51.972;4.618;2022-08-19T11:09:55;148978.72;;;24.91;100.00
38058;BME280;23862;51.972;4.618;2022-08-19T11:12:21;148879.78;;;24.52;100.00
38058;BME280;23862;51.972;4.618;2022-08-19T11:14:50;148818.09;;;24.27;100.00
38058;BME280;23862;51.972;4.618;2022-08-19T11:17:15;148792.41;;;24.17;100.00
38058;BME280;23862;51.972;4.618;2022-08-19T11:19:41;148738.47;;;23.95;100.00
38058;BME280;23862;51.972;4.618;2022-08-19T11:22:07;148666.53;;;23.66;100.00
38058;BME280;23862;51.972;4.618;2022-08-19T11:24:35;148660.09;;;23.64;100.00
38058;BME280;23862;51.972;4.618;2022-08-19T11:27:03;148653.66;;;23.61;100.00
38058;BME280;23862;51.972;4.618;2022-08-19T11:29:29;148616.47;;;23.46;100.00
38058;BME280;23862;51.972;4.618;2022-08-19T11:31:55;148635.72;;;23.54;100.00
38058;BME280;23862;51.972;4.618;2022-08-19T11:34:22;148711.50;;;23.84;100.00
38058;BME280;23862;51.972;4.618;2022-08-19T11:36:49;148742.31;;;23.97;100.00
38058;BME280;23862;51.972;4.618;2022-08-19T11:39:17;148764.16;;;24.06;100.00
38058;BME280;23862;51.972;4.618;2022-08-19T11:41:42;148828.34;;;24.31;100.00
38058;BME280;23862;51.972;4.618;2022-08-19T11:44:09;148887.47;;;24.55;100.00
38058;BME280;23862;51.972;4.618;2022-08-19T11:46:36;148936.31;;;24.75;100.00
38058;BME280;23862;51.972;4.618;2022-08-19T11:49:02;148951.72;;;24.81;100.00
38058;BME280;23862;51.972;4.618;2022-08-19T11:51:28;148927.34;;;24.71;100.00
38058;BME280;23862;51.972;4.618;2022-08-19T11:53:54;148927.34;;;24.71;100.00
38058;BME280;23862;51.972;4.618;2022-08-19T11:56:21;148910.66;;;24.64;100.00
38058;BME280;23862;51.972;4.618;2022-08-19T11:58:47;148832.19;;;24.33;100.00
38058;BME280;23862;51.972;4.618;2022-08-19T12:01:13;148824.50;;;24.30;100.00
38058;BME280;23862;51.972;4.618;2022-08-19T12:03:43;148829.66;;;24.32;100.00
38058;BME280;23862;51.972;4.618;2022-08-19T12:06:09;148834.78;;;24.34;100.00
38058;BME280;23862;51.972;4.618;2022-08-19T12:08:35;148828.34;;;24.31;100.00
38058;BME280;23862;51.972;4.618;2022-08-19T12:11:00;148815.53;;;24.26;100.00
38058;BME280;23862;51.972;4.618;2022-08-19T12:13:30;148938.91;;;24.76;100.00
38058;BME280;23862;51.972;4.618;2022-08-19T12:15:56;148931.19;;;24.72;100.00
38058;BME280;23862;51.972;4.618;2022-08-19T12:18:22;148972.28;;;24.89;100.00
38058;BME280;23862;51.972;4.618;2022-08-19T12:20:47;148944.03;;;24.78;100.00
38058;BME280;23862;51.972;4.618;2022-08-19T12:23:15;149018.53;;;25.07;100.00
38058;BME280;23862;51.972;4.618;2022-08-19T12:25:45;148923.47;;;24.69;100.00
38058;BME280;23862;51.972;4.618;2022-08-19T12:28:17;148960.72;;;24.84;100.00
38058;BME280;23862;51.972;4.618;2022-08-19T12:30:42;148923.47;;;24.69;100.00
38058;BME280;23862;51.972;4.618;2022-08-19T12:33:08;148918.34;;;24.67;100.00
38058;BME280;23862;51.972;4.618;2022-08-19T12:35:33;148920.91;;;24.68;100.00
38058;BME280;23862;51.972;4.618;2022-08-19T12:37:58;148890.00;;;24.56;100.00
38058;BME280;23862;51.972;4.618;2022-08-19T12:40:26;148827.09;;;24.31;100.00
38058;BME280;23862;51.972;4.618;2022-08-19T12:42:52;148788.56;;;24.15;100.00
38058;BME280;23862;51.972;4.618;2022-08-19T12:45:20;148734.59;;;23.94;100.00
38058;BME280;23862;51.972;4.618;2022-08-19T12:47:46;133466.28;;;23.71;100.00
38058;BME280;23862;51.972;4.618;2022-08-19T12:50:12;79671.97;;;23.94;100.00
38058;BME280;23862;51.972;4.618;2022-08-19T12:52:38;65321.19;;;23.98;100.00
38058;BME280;23862;51.972;4.618;2022-08-19T12:55:04;82114.19;;;24.26;100.00
38058;BME280;23862;51.972;4.618;2022-08-19T12:57:30;91404.38;;;24.41;100.00
38058;BME280;23862;51.972;4.618;2022-08-19T12:59:56;120053.16;;;24.53;100.00
38058;BME280;23862;51.972;4.618;2022-08-19T13:02:21;141633.06;;;24.91;100.00
38058;BME280;23862;51.972;4.618;2022-08-19T13:04:47;148941.50;;;24.77;100.00